sensor_id;sensor_type;location;lat;lon;timestamp;temperature;humidity
49379;DHT22;35254;47.990;-1.608;2022-09-25T00:01:35;24.00;52.30
49379;DHT22;35254;47.990;-1.608;2022-09-25T00:04:01;24.00;52.20
49379;DHT22;35254;47.990;-1.608;2022-09-25T00:06:28;24.00;52.20
49379;DHT22;35254;47.990;-1.608;2022-09-25T00:08:54;24.00;52.10
49379;DHT22;35254;47.990;-1.608;2022-09-25T00:11:24;24.00;52.00
49379;DHT22;35254;47.990;-1.608;2022-09-25T00:13:52;24.10;52.00
49379;DHT22;35254;47.990;-1.608;2022-09-25T00:16:24;24.10;51.90
49379;DHT22;35254;47.990;-1.608;2022-09-25T00:18:50;24.10;51.90
49379;DHT22;35254;47.990;-1.608;2022-09-25T00:21:35;24.10;51.90
49379;DHT22;35254;47.990;-1.608;2022-09-25T00:24:05;24.10;51.80
49379;DHT22;35254;47.990;-1.608;2022-09-25T00:26:33;24.10;51.70
49379;DHT22;35254;47.990;-1.608;2022-09-25T00:29:00;24.10;51.60
49379;DHT22;35254;47.990;-1.608;2022-09-25T00:31:26;24.10;51.60
49379;DHT22;35254;47.990;-1.608;2022-09-25T00:33:55;24.10;51.50
49379;DHT22;35254;47.990;-1.608;2022-09-25T00:36:21;24.10;51.50
49379;DHT22;35254;47.990;-1.608;2022-09-25T00:38:47;24.10;51.40
49379;DHT22;35254;47.990;-1.608;2022-09-25T00:41:15;24.10;51.30
49379;DHT22;35254;47.990;-1.608;2022-09-25T00:43:52;24.20;51.30
49379;DHT22;35254;47.990;-1.608;2022-09-25T00:49:18;24.10;51.00
49379;DHT22;35254;47.990;-1.608;2022-09-25T00:51:49;24.10;51.00
49379;DHT22;35254;47.990;-1.608;2022-09-25T00:56:48;24.20;50.90
49379;DHT22;35254;47.990;-1.608;2022-09-25T00:59:21;24.20;50.90
49379;DHT22;35254;47.990;-1.608;2022-09-25T01:01:48;24.10;50.80
49379;DHT22;35254;47.990;-1.608;2022-09-25T01:04:14;24.20;50.80
49379;DHT22;35254;47.990;-1.608;2022-09-25T01:06:41;24.20;50.80
49379;DHT22;35254;47.990;-1.608;2022-09-25T01:09:07;24.20;50.70
49379;DHT22;35254;47.990;-1.608;2022-09-25T01:11:32;24.20;50.70
49379;DHT22;35254;47.990;-1.608;2022-09-25T01:14:01;24.20;50.70
49379;DHT22;35254;47.990;-1.608;2022-09-25T01:16:57;24.20;50.70
49379;DHT22;35254;47.990;-1.608;2022-09-25T01:22:14;24.20;50.60
49379;DHT22;35254;47.990;-1.608;2022-09-25T01:24:49;24.20;50.50
49379;DHT22;35254;47.990;-1.608;2022-09-25T01:32:55;24.20;50.30
49379;DHT22;35254;47.990;-1.608;2022-09-25T01:35:49;24.20;50.30
49379;DHT22;35254;47.990;-1.608;2022-09-25T01:41:45;24.20;50.30
49379;DHT22;35254;47.990;-1.608;2022-09-25T01:44:16;24.20;50.30
49379;DHT22;35254;47.990;-1.608;2022-09-25T01:46:50;24.20;50.30
49379;DHT22;35254;47.990;-1.608;2022-09-25T01:51:58;24.20;50.20
49379;DHT22;35254;47.990;-1.608;2022-09-25T01:54:55;24.20;50.20
49379;DHT22;35254;47.990;-1.608;2022-09-25T01:57:37;24.20;50.20
49379;DHT22;35254;47.990;-1.608;2022-09-25T02:00:27;24.20;50.20
49379;DHT22;35254;47.990;-1.608;2022-09-25T02:03:00;24.20;50.20
49379;DHT22;35254;47.990;-1.608;2022-09-25T02:05:44;24.20;50.10
49379;DHT22;35254;47.990;-1.608;2022-09-25T02:08:25;24.20;50.00
49379;DHT22;35254;47.990;-1.608;2022-09-25T02:10:56;24.20;50.00
49379;DHT22;35254;47.990;-1.608;2022-09-25T02:13:30;24.20;50.10
49379;DHT22;35254;47.990;-1.608;2022-09-25T02:16:02;24.20;50.00
49379;DHT22;35254;47.990;-1.608;2022-09-25T02:18:30;24.10;50.00
49379;DHT22;35254;47.990;-1.608;2022-09-25T02:24:25;24.10;49.90
49379;DHT22;35254;47.990;-1.608;2022-09-25T02:26:55;24.10;49.90
49379;DHT22;35254;47.990;-1.608;2022-09-25T02:29:21;24.10;49.90
49379;DHT22;35254;47.990;-1.608;2022-09-25T02:31:52;24.10;49.90
49379;DHT22;35254;47.990;-1.608;2022-09-25T02:34:20;24.10;49.90
49379;DHT22;35254;47.990;-1.608;2022-09-25T02:36:46;24.10;49.90
49379;DHT22;35254;47.990;-1.608;2022-09-25T02:39:14;24.10;50.00
49379;DHT22;35254;47.990;-1.608;2022-09-25T02:47:38;24.20;50.20
49379;DHT22;35254;47.990;-1.608;2022-09-25T02:50:29;24.20;50.10
49379;DHT22;35254;47.990;-1.608;2022-09-25T02:58:12;24.20;50.10
49379;DHT22;35254;47.990;-1.608;2022-09-25T03:00:41;24.20;50.10
49379;DHT22;35254;47.990;-1.608;2022-09-25T03:03:09;24.20;50.10
49379;DHT22;35254;47.990;-1.608;2022-09-25T03:05:36;24.10;50.00
49379;DHT22;35254;47.990;-1.608;2022-09-25T03:08:03;24.10;50.00
49379;DHT22;35254;47.990;-1.608;2022-09-25T03:10:48;24.10;50.00
49379;DHT22;35254;47.990;-1.608;2022-09-25T03:13:19;24.10;50.00
49379;DHT22;35254;47.990;-1.608;2022-09-25T03:15:57;24.10;49.90
49379;DHT22;35254;47.990;-1.608;2022-09-25T03:18:24;24.10;49.90
49379;DHT22;35254;47.990;-1.608;2022-09-25T03:20:51;24.10;49.90
49379;DHT22;35254;47.990;-1.608;2022-09-25T03:23:17;24.10;49.90
49379;DHT22;35254;47.990;-1.608;2022-09-25T03:25:43;24.10;49.90
49379;DHT22;35254;47.990;-1.608;2022-09-25T03:28:09;24.10;49.80
49379;DHT22;35254;47.990;-1.608;2022-09-25T03:30:36;24.10;49.80
49379;DHT22;35254;47.990;-1.608;2022-09-25T03:33:09;24.10;49.80
49379;DHT22;35254;47.990;-1.608;2022-09-25T03:35:39;24.10;49.80
49379;DHT22;35254;47.990;-1.608;2022-09-25T03:38:05;24.10;49.80
49379;DHT22;35254;47.990;-1.608;2022-09-25T03:40:33;24.10;49.70
49379;DHT22;35254;47.990;-1.608;2022-09-25T03:42:58;24.10;49.70
49379;DHT22;35254;47.990;-1.608;2022-09-25T03:45:24;24.00;49.70
49379;DHT22;35254;47.990;-1.608;2022-09-25T03:47:50;24.00;49.70
49379;DHT22;35254;47.990;-1.608;2022-09-25T03:50:15;24.00;49.70
49379;DHT22;35254;47.990;-1.608;2022-09-25T03:52:41;24.00;49.70
49379;DHT22;35254;47.990;-1.608;2022-09-25T03:55:07;24.00;49.70
49379;DHT22;35254;47.990;-1.608;2022-09-25T03:57:32;24.00;49.60
49379;DHT22;35254;47.990;-1.608;2022-09-25T03:59:58;24.00;49.60
49379;DHT22;35254;47.990;-1.608;2022-09-25T04:02:27;24.00;49.60
49379;DHT22;35254;47.990;-1.608;2022-09-25T04:04:53;24.00;49.60
49379;DHT22;35254;47.990;-1.608;2022-09-25T04:07:20;24.00;49.60
49379;DHT22;35254;47.990;-1.608;2022-09-25T04:09:46;23.90;49.60
49379;DHT22;35254;47.990;-1.608;2022-09-25T04:12:11;23.90;49.60
49379;DHT22;35254;47.990;-1.608;2022-09-25T04:14:37;24.00;49.50
49379;DHT22;35254;47.990;-1.608;2022-09-25T04:17:03;24.00;49.60
49379;DHT22;35254;47.990;-1.608;2022-09-25T04:19:29;23.90;49.50
49379;DHT22;35254;47.990;-1.608;2022-09-25T04:21:55;23.90;49.50
49379;DHT22;35254;47.990;-1.608;2022-09-25T04:24:20;23.90;49.50
49379;DHT22;35254;47.990;-1.608;2022-09-25T04:27:05;23.90;49.50
49379;DHT22;35254;47.990;-1.608;2022-09-25T04:29:30;23.90;49.50
49379;DHT22;35254;47.990;-1.608;2022-09-25T04:31:56;23.90;49.50
49379;DHT22;35254;47.990;-1.608;2022-09-25T04:34:40;23.80;49.50
49379;DHT22;35254;47.990;-1.608;2022-09-25T04:37:07;23.90;49.50
49379;DHT22;35254;47.990;-1.608;2022-09-25T04:39:32;23.90;49.50
49379;DHT22;35254;47.990;-1.608;2022-09-25T04:41:58;23.90;49.50
49379;DHT22;35254;47.990;-1.608;2022-09-25T04:44:23;23.90;49.50
49379;DHT22;35254;47.990;-1.608;2022-09-25T04:46:49;23.80;49.50
49379;DHT22;35254;47.990;-1.608;2022-09-25T04:49:16;23.80;49.50
49379;DHT22;35254;47.990;-1.608;2022-09-25T04:51:42;23.80;49.50
49379;DHT22;35254;47.990;-1.608;2022-09-25T04:54:08;23.80;49.60
49379;DHT22;35254;47.990;-1.608;2022-09-25T04:56:33;23.70;49.70
49379;DHT22;35254;47.990;-1.608;2022-09-25T04:58:59;23.70;49.80
49379;DHT22;35254;47.990;-1.608;2022-09-25T05:01:24;23.70;49.80
49379;DHT22;35254;47.990;-1.608;2022-09-25T05:03:51;23.80;49.80
49379;DHT22;35254;47.990;-1.608;2022-09-25T05:06:20;23.80;49.80
49379;DHT22;35254;47.990;-1.608;2022-09-25T05:08:47;23.70;49.70
49379;DHT22;35254;47.990;-1.608;2022-09-25T05:11:17;23.70;49.70
49379;DHT22;35254;47.990;-1.608;2022-09-25T05:13:43;23.70;49.70
49379;DHT22;35254;47.990;-1.608;2022-09-25T05:16:11;23.80;49.70
49379;DHT22;35254;47.990;-1.608;2022-09-25T05:18:37;23.70;49.70
49379;DHT22;35254;47.990;-1.608;2022-09-25T05:21:03;23.80;49.70
49379;DHT22;35254;47.990;-1.608;2022-09-25T05:23:29;23.70;49.70
49379;DHT22;35254;47.990;-1.608;2022-09-25T05:25:55;23.70;49.70
49379;DHT22;35254;47.990;-1.608;2022-09-25T05:28:25;23.70;49.70
49379;DHT22;35254;47.990;-1.608;2022-09-25T05:30:50;23.70;49.70
49379;DHT22;35254;47.990;-1.608;2022-09-25T05:33:16;23.70;49.70
49379;DHT22;35254;47.990;-1.608;2022-09-25T05:35:43;23.70;49.70
49379;DHT22;35254;47.990;-1.608;2022-09-25T05:38:09;23.70;49.60
49379;DHT22;35254;47.990;-1.608;2022-09-25T05:40:35;23.70;49.70
49379;DHT22;35254;47.990;-1.608;2022-09-25T05:43:03;23.70;49.60
49379;DHT22;35254;47.990;-1.608;2022-09-25T05:45:30;23.70;49.60
49379;DHT22;35254;47.990;-1.608;2022-09-25T05:48:03;23.70;49.60
49379;DHT22;35254;47.990;-1.608;2022-09-25T05:50:30;23.70;49.60
49379;DHT22;35254;47.990;-1.608;2022-09-25T05:52:58;23.70;49.60
49379;DHT22;35254;47.990;-1.608;2022-09-25T05:55:24;23.70;49.70
49379;DHT22;35254;47.990;-1.608;2022-09-25T05:57:50;23.70;49.70
49379;DHT22;35254;47.990;-1.608;2022-09-25T06:00:16;23.70;49.60
49379;DHT22;35254;47.990;-1.608;2022-09-25T06:02:42;23.70;49.60
49379;DHT22;35254;47.990;-1.608;2022-09-25T06:05:08;23.60;49.60
49379;DHT22;35254;47.990;-1.608;2022-09-25T06:07:34;23.70;49.60
49379;DHT22;35254;47.990;-1.608;2022-09-25T06:10:00;23.70;49.60
49379;DHT22;35254;47.990;-1.608;2022-09-25T06:12:28;23.70;49.60
49379;DHT22;35254;47.990;-1.608;2022-09-25T06:14:54;23.70;49.60
49379;DHT22;35254;47.990;-1.608;2022-09-25T06:17:20;23.70;49.60
49379;DHT22;35254;47.990;-1.608;2022-09-25T06:19:45;23.70;49.60
49379;DHT22;35254;47.990;-1.608;2022-09-25T06:22:11;23.70;49.60
49379;DHT22;35254;47.990;-1.608;2022-09-25T06:24:37;23.60;49.60
49379;DHT22;35254;47.990;-1.608;2022-09-25T06:27:05;23.60;49.60
49379;DHT22;35254;47.990;-1.608;2022-09-25T06:29:31;23.60;49.60
49379;DHT22;35254;47.990;-1.608;2022-09-25T06:31:56;23.70;49.60
49379;DHT22;35254;47.990;-1.608;2022-09-25T06:34:22;23.70;49.60
49379;DHT22;35254;47.990;-1.608;2022-09-25T06:36:48;23.60;49.60
49379;DHT22;35254;47.990;-1.608;2022-09-25T06:39:13;23.60;49.60
49379;DHT22;35254;47.990;-1.608;2022-09-25T06:41:39;23.60;49.50
49379;DHT22;35254;47.990;-1.608;2022-09-25T06:44:05;23.60;49.50
49379;DHT22;35254;47.990;-1.608;2022-09-25T06:46:33;23.60;49.50
49379;DHT22;35254;47.990;-1.608;2022-09-25T06:48:59;23.60;49.50
49379;DHT22;35254;47.990;-1.608;2022-09-25T06:51:25;23.60;49.50
49379;DHT22;35254;47.990;-1.608;2022-09-25T06:53:57;23.60;49.50
49379;DHT22;35254;47.990;-1.608;2022-09-25T06:56:22;23.50;49.50
49379;DHT22;35254;47.990;-1.608;2022-09-25T06:58:49;23.60;49.50
49379;DHT22;35254;47.990;-1.608;2022-09-25T07:01:15;23.50;49.50
49379;DHT22;35254;47.990;-1.608;2022-09-25T07:03:40;23.60;49.50
49379;DHT22;35254;47.990;-1.608;2022-09-25T07:06:12;23.50;49.40
49379;DHT22;35254;47.990;-1.608;2022-09-25T07:08:38;23.50;49.40
49379;DHT22;35254;47.990;-1.608;2022-09-25T07:11:04;23.50;49.40
49379;DHT22;35254;47.990;-1.608;2022-09-25T07:13:33;23.50;49.50
49379;DHT22;35254;47.990;-1.608;2022-09-25T07:16:07;23.50;49.50
49379;DHT22;35254;47.990;-1.608;2022-09-25T07:18:33;23.50;49.40
49379;DHT22;35254;47.990;-1.608;2022-09-25T07:21:00;23.50;49.40
49379;DHT22;35254;47.990;-1.608;2022-09-25T07:23:27;23.50;49.50
49379;DHT22;35254;47.990;-1.608;2022-09-25T07:25:53;23.50;49.50
49379;DHT22;35254;47.990;-1.608;2022-09-25T07:28:19;23.50;49.50
49379;DHT22;35254;47.990;-1.608;2022-09-25T07:30:45;23.50;49.50
49379;DHT22;35254;47.990;-1.608;2022-09-25T07:33:12;23.50;49.50
49379;DHT22;35254;47.990;-1.608;2022-09-25T07:35:37;23.50;49.50
49379;DHT22;35254;47.990;-1.608;2022-09-25T07:38:04;23.50;49.50
49379;DHT22;35254;47.990;-1.608;2022-09-25T07:40:30;23.50;49.50
49379;DHT22;35254;47.990;-1.608;2022-09-25T07:43:03;23.50;49.40
49379;DHT22;35254;47.990;-1.608;2022-09-25T07:45:29;23.50;49.50
49379;DHT22;35254;47.990;-1.608;2022-09-25T07:47:59;23.50;49.50
49379;DHT22;35254;47.990;-1.608;2022-09-25T07:50:29;23.50;49.50
49379;DHT22;35254;47.990;-1.608;2022-09-25T07:52:54;23.50;49.60
49379;DHT22;35254;47.990;-1.608;2022-09-25T07:55:20;23.60;50.10
49379;DHT22;35254;47.990;-1.608;2022-09-25T07:57:46;23.60;50.30
49379;DHT22;35254;47.990;-1.608;2022-09-25T08:00:13;23.70;50.40
49379;DHT22;35254;47.990;-1.608;2022-09-25T08:02:39;23.70;50.40
49379;DHT22;35254;47.990;-1.608;2022-09-25T08:05:05;23.80;50.60
49379;DHT22;35254;47.990;-1.608;2022-09-25T08:07:31;23.80;50.70
49379;DHT22;35254;47.990;-1.608;2022-09-25T08:09:56;23.90;50.80
49379;DHT22;35254;47.990;-1.608;2022-09-25T08:12:22;23.90;50.90
49379;DHT22;35254;47.990;-1.608;2022-09-25T08:14:50;23.90;50.90
49379;DHT22;35254;47.990;-1.608;2022-09-25T08:17:16;24.00;50.90
49379;DHT22;35254;47.990;-1.608;2022-09-25T08:19:43;24.10;51.20
49379;DHT22;35254;47.990;-1.608;2022-09-25T08:22:08;24.20;51.30
49379;DHT22;35254;47.990;-1.608;2022-09-25T08:24:34;24.20;51.30
49379;DHT22;35254;47.990;-1.608;2022-09-25T08:26:59;24.30;51.10
49379;DHT22;35254;47.990;-1.608;2022-09-25T08:29:25;24.40;51.00
49379;DHT22;35254;47.990;-1.608;2022-09-25T08:31:51;24.40;51.00
49379;DHT22;35254;47.990;-1.608;2022-09-25T08:34:17;24.50;51.10
49379;DHT22;35254;47.990;-1.608;2022-09-25T08:36:43;24.60;51.10
49379;DHT22;35254;47.990;-1.608;2022-09-25T08:39:08;24.50;50.90
49379;DHT22;35254;47.990;-1.608;2022-09-25T08:41:47;24.60;50.70
49379;DHT22;35254;47.990;-1.608;2022-09-25T08:50:12;24.40;50.30
49379;DHT22;35254;47.990;-1.608;2022-09-25T08:52:40;24.40;50.30
49379;DHT22;35254;47.990;-1.608;2022-09-25T08:55:26;24.40;50.50
49379;DHT22;35254;47.990;-1.608;2022-09-25T08:58:31;24.40;50.40
49379;DHT22;35254;47.990;-1.608;2022-09-25T09:01:05;24.50;50.90
49379;DHT22;35254;47.990;-1.608;2022-09-25T09:03:32;24.60;50.80
49379;DHT22;35254;47.990;-1.608;2022-09-25T09:06:09;24.70;50.90
49379;DHT22;35254;47.990;-1.608;2022-09-25T09:08:37;24.70;50.80
49379;DHT22;35254;47.990;-1.608;2022-09-25T09:13:50;24.80;50.70
49379;DHT22;35254;47.990;-1.608;2022-09-25T09:18:52;24.80;50.70
49379;DHT22;35254;47.990;-1.608;2022-09-25T09:46:04;24.80;50.60
49379;DHT22;35254;47.990;-1.608;2022-09-25T09:48:41;24.90;50.90
49379;DHT22;35254;47.990;-1.608;2022-09-25T09:51:12;24.80;50.80
49379;DHT22;35254;47.990;-1.608;2022-09-25T09:56:22;24.90;50.90
49379;DHT22;35254;47.990;-1.608;2022-09-25T09:59:45;24.90;50.90
49379;DHT22;35254;47.990;-1.608;2022-09-25T10:01:53;24.90;50.80
49379;DHT22;35254;47.990;-1.608;2022-09-25T10:04:33;25.00;50.90
49379;DHT22;35254;47.990;-1.608;2022-09-25T10:07:04;24.90;50.80
49379;DHT22;35254;47.990;-1.608;2022-09-25T10:09:30;25.00;50.80
49379;DHT22;35254;47.990;-1.608;2022-09-25T10:12:00;24.90;50.70
49379;DHT22;35254;47.990;-1.608;2022-09-25T10:14:31;24.90;50.70
49379;DHT22;35254;47.990;-1.608;2022-09-25T10:16:58;24.90;50.70
49379;DHT22;35254;47.990;-1.608;2022-09-25T10:19:25;24.90;50.70
49379;DHT22;35254;47.990;-1.608;2022-09-25T10:22:15;24.90;50.70
49379;DHT22;35254;47.990;-1.608;2022-09-25T10:27:28;24.90;50.50
49379;DHT22;35254;47.990;-1.608;2022-09-25T10:32:40;24.90;50.50
49379;DHT22;35254;47.990;-1.608;2022-09-25T10:35:18;24.90;50.50
49379;DHT22;35254;47.990;-1.608;2022-09-25T10:37:50;24.80;50.30
49379;DHT22;35254;47.990;-1.608;2022-09-25T10:40:29;24.90;50.30
49379;DHT22;35254;47.990;-1.608;2022-09-25T10:43:17;24.90;50.20
49379;DHT22;35254;47.990;-1.608;2022-09-25T10:45:45;24.80;50.00
49379;DHT22;35254;47.990;-1.608;2022-09-25T10:48:37;24.80;50.00
49379;DHT22;35254;47.990;-1.608;2022-09-25T10:51:22;24.80;49.90
49379;DHT22;35254;47.990;-1.608;2022-09-25T10:53:55;24.80;50.00
49379;DHT22;35254;47.990;-1.608;2022-09-25T10:56:34;24.80;50.00
49379;DHT22;35254;47.990;-1.608;2022-09-25T10:59:06;24.80;50.00
49379;DHT22;35254;47.990;-1.608;2022-09-25T11:01:36;24.80;49.90
49379;DHT22;35254;47.990;-1.608;2022-09-25T11:06:56;24.90;49.80
49379;DHT22;35254;47.990;-1.608;2022-09-25T11:09:28;24.80;49.80
49379;DHT22;35254;47.990;-1.608;2022-09-25T11:12:13;24.90;49.80
49379;DHT22;35254;47.990;-1.608;2022-09-25T11:14:52;24.90;49.70
49379;DHT22;35254;47.990;-1.608;2022-09-25T11:17:51;24.90;49.60
49379;DHT22;35254;47.990;-1.608;2022-09-25T11:20:22;24.90;49.60
49379;DHT22;35254;47.990;-1.608;2022-09-25T11:26:09;24.90;49.80
49379;DHT22;35254;47.990;-1.608;2022-09-25T11:28:50;24.90;49.80
49379;DHT22;35254;47.990;-1.608;2022-09-25T11:39:48;25.00;49.50
49379;DHT22;35254;47.990;-1.608;2022-09-25T11:43:03;25.00;49.70
49379;DHT22;35254;47.990;-1.608;2022-09-25T11:46:19;25.00;49.50
49379;DHT22;35254;47.990;-1.608;2022-09-25T11:49:18;25.00;49.70
49379;DHT22;35254;47.990;-1.608;2022-09-25T11:58:03;25.20;50.40
49379;DHT22;35254;47.990;-1.608;2022-09-25T12:02:55;25.40;50.70
49379;DHT22;35254;47.990;-1.608;2022-09-25T12:11:29;25.50;50.90
49379;DHT22;35254;47.990;-1.608;2022-09-25T12:16:48;25.60;51.00
49379;DHT22;35254;47.990;-1.608;2022-09-25T12:27:29;25.60;51.50
49379;DHT22;35254;47.990;-1.608;2022-09-25T12:33:24;25.70;51.90
49379;DHT22;35254;47.990;-1.608;2022-09-25T12:36:08;25.70;51.80
49379;DHT22;35254;47.990;-1.608;2022-09-25T12:43:45;25.80;52.20
49379;DHT22;35254;47.990;-1.608;2022-09-25T12:46:26;25.80;52.30
49379;DHT22;35254;47.990;-1.608;2022-09-25T12:49:01;25.90;52.40
49379;DHT22;35254;47.990;-1.608;2022-09-25T12:57:08;25.90;52.60
49379;DHT22;35254;47.990;-1.608;2022-09-25T12:59:58;25.80;52.50
49379;DHT22;35254;47.990;-1.608;2022-09-25T13:02:45;25.70;52.40
49379;DHT22;35254;47.990;-1.608;2022-09-25T13:05:18;25.70;52.40
49379;DHT22;35254;47.990;-1.608;2022-09-25T13:08:15;25.60;52.30
49379;DHT22;35254;47.990;-1.608;2022-09-25T13:10:51;25.50;52.20
49379;DHT22;35254;47.990;-1.608;2022-09-25T13:13:24;25.50;52.40
49379;DHT22;35254;47.990;-1.608;2022-09-25T13:15:57;25.50;52.30
49379;DHT22;35254;47.990;-1.608;2022-09-25T13:18:26;25.50;52.50
49379;DHT22;35254;47.990;-1.608;2022-09-25T13:21:35;25.40;52.40
49379;DHT22;35254;47.990;-1.608;2022-09-25T13:23:41;25.40;52.20
49379;DHT22;35254;47.990;-1.608;2022-09-25T13:26:13;25.40;52.10
49379;DHT22;35254;47.990;-1.608;2022-09-25T13:28:49;25.30;52.00
49379;DHT22;35254;47.990;-1.608;2022-09-25T13:31:26;25.20;51.90
49379;DHT22;35254;47.990;-1.608;2022-09-25T13:36:33;25.20;52.00
49379;DHT22;35254;47.990;-1.608;2022-09-25T13:42:02;25.20;52.00
49379;DHT22;35254;47.990;-1.608;2022-09-25T13:52:52;25.20;52.20
49379;DHT22;35254;47.990;-1.608;2022-09-25T13:55:40;25.20;52.20
49379;DHT22;35254;47.990;-1.608;2022-09-25T13:58:23;25.20;52.20
49379;DHT22;35254;47.990;-1.608;2022-09-25T14:00:55;25.20;52.00
49379;DHT22;35254;47.990;-1.608;2022-09-25T14:03:47;25.10;52.10
49379;DHT22;35254;47.990;-1.608;2022-09-25T14:06:22;25.10;51.70
49379;DHT22;35254;47.990;-1.608;2022-09-25T14:08:50;25.20;52.00
49379;DHT22;35254;47.990;-1.608;2022-09-25T14:11:20;25.20;52.30
49379;DHT22;35254;47.990;-1.608;2022-09-25T14:13:50;25.10;52.20
49379;DHT22;35254;47.990;-1.608;2022-09-25T14:16:42;25.20;52.20
49379;DHT22;35254;47.990;-1.608;2022-09-25T14:19:23;25.20;51.90
49379;DHT22;35254;47.990;-1.608;2022-09-25T14:21:50;25.10;51.90
49379;DHT22;35254;47.990;-1.608;2022-09-25T14:24:20;25.10;51.90
49379;DHT22;35254;47.990;-1.608;2022-09-25T14:26:48;25.10;51.60
49379;DHT22;35254;47.990;-1.608;2022-09-25T14:29:23;25.00;51.60
49379;DHT22;35254;47.990;-1.608;2022-09-25T14:48:10;25.00;52.20
49379;DHT22;35254;47.990;-1.608;2022-09-25T14:50:44;25.00;52.20
49379;DHT22;35254;47.990;-1.608;2022-09-25T14:53:42;25.00;52.30
49379;DHT22;35254;47.990;-1.608;2022-09-25T14:56:11;25.00;52.20
49379;DHT22;35254;47.990;-1.608;2022-09-25T14:58:48;25.00;52.30
49379;DHT22;35254;47.990;-1.608;2022-09-25T15:01:29;24.90;52.30
49379;DHT22;35254;47.990;-1.608;2022-09-25T15:03:59;24.90;51.90
49379;DHT22;35254;47.990;-1.608;2022-09-25T15:06:30;24.90;51.40
49379;DHT22;35254;47.990;-1.608;2022-09-25T15:08:57;24.80;51.40
49379;DHT22;35254;47.990;-1.608;2022-09-25T15:11:25;24.70;51.70
49379;DHT22;35254;47.990;-1.608;2022-09-25T15:14:07;24.70;51.70
49379;DHT22;35254;47.990;-1.608;2022-09-25T15:16:35;24.70;51.80
49379;DHT22;35254;47.990;-1.608;2022-09-25T15:19:25;24.80;51.90
49379;DHT22;35254;47.990;-1.608;2022-09-25T15:21:52;24.70;51.90
49379;DHT22;35254;47.990;-1.608;2022-09-25T15:24:26;24.80;52.00
49379;DHT22;35254;47.990;-1.608;2022-09-25T15:26:58;24.70;51.90
49379;DHT22;35254;47.990;-1.608;2022-09-25T15:29:30;24.80;51.90
49379;DHT22;35254;47.990;-1.608;2022-09-25T15:31:58;24.80;52.00
49379;DHT22;35254;47.990;-1.608;2022-09-25T15:34:28;24.80;51.50
49379;DHT22;35254;47.990;-1.608;2022-09-25T15:37:27;24.70;50.70
49379;DHT22;35254;47.990;-1.608;2022-09-25T15:39:53;24.60;51.00
49379;DHT22;35254;47.990;-1.608;2022-09-25T15:42:19;24.70;51.70
49379;DHT22;35254;47.990;-1.608;2022-09-25T15:44:45;24.70;52.70
49379;DHT22;35254;47.990;-1.608;2022-09-25T15:50:12;24.90;52.60
49379;DHT22;35254;47.990;-1.608;2022-09-25T15:52:39;24.90;52.90
49379;DHT22;35254;47.990;-1.608;2022-09-25T15:55:10;24.90;53.20
49379;DHT22;35254;47.990;-1.608;2022-09-25T15:57:38;25.00;53.40
49379;DHT22;35254;47.990;-1.608;2022-09-25T16:00:08;25.00;53.30
49379;DHT22;35254;47.990;-1.608;2022-09-25T16:03:02;24.90;53.30
49379;DHT22;35254;47.990;-1.608;2022-09-25T16:06:05;25.00;53.50
49379;DHT22;35254;47.990;-1.608;2022-09-25T16:08:33;24.90;53.50
49379;DHT22;35254;47.990;-1.608;2022-09-25T16:11:25;25.00;53.80
49379;DHT22;35254;47.990;-1.608;2022-09-25T16:14:26;25.00;54.10
49379;DHT22;35254;47.990;-1.608;2022-09-25T16:16:56;24.90;52.60
49379;DHT22;35254;47.990;-1.608;2022-09-25T16:19:26;24.80;53.40
49379;DHT22;35254;47.990;-1.608;2022-09-25T16:21:54;24.80;53.90
49379;DHT22;35254;47.990;-1.608;2022-09-25T16:24:24;24.90;54.00
49379;DHT22;35254;47.990;-1.608;2022-09-25T16:26:57;24.90;54.30
49379;DHT22;35254;47.990;-1.608;2022-09-25T16:29:26;24.90;54.40
49379;DHT22;35254;47.990;-1.608;2022-09-25T16:31:53;24.90;54.20
49379;DHT22;35254;47.990;-1.608;2022-09-25T16:34:36;25.00;54.60
49379;DHT22;35254;47.990;-1.608;2022-09-25T16:37:04;25.00;54.50
49379;DHT22;35254;47.990;-1.608;2022-09-25T16:39:35;24.90;54.40
49379;DHT22;35254;47.990;-1.608;2022-09-25T16:44:46;25.00;54.70
49379;DHT22;35254;47.990;-1.608;2022-09-25T16:47:19;25.00;54.60
49379;DHT22;35254;47.990;-1.608;2022-09-25T16:49:48;25.00;54.70
49379;DHT22;35254;47.990;-1.608;2022-09-25T16:52:19;24.90;54.90
49379;DHT22;35254;47.990;-1.608;2022-09-25T16:54:51;25.00;54.80
49379;DHT22;35254;47.990;-1.608;2022-09-25T16:57:23;24.90;54.90
49379;DHT22;35254;47.990;-1.608;2022-09-25T16:59:49;24.90;55.00
49379;DHT22;35254;47.990;-1.608;2022-09-25T17:04:47;24.90;55.00
49379;DHT22;35254;47.990;-1.608;2022-09-25T17:07:15;24.90;54.80
49379;DHT22;35254;47.990;-1.608;2022-09-25T17:09:40;24.90;55.00
49379;DHT22;35254;47.990;-1.608;2022-09-25T17:12:16;24.90;54.80
49379;DHT22;35254;47.990;-1.608;2022-09-25T17:14:43;24.80;54.90
49379;DHT22;35254;47.990;-1.608;2022-09-25T17:17:09;24.80;54.90
49379;DHT22;35254;47.990;-1.608;2022-09-25T17:19:35;24.80;54.90
49379;DHT22;35254;47.990;-1.608;2022-09-25T17:22:01;24.80;55.00
49379;DHT22;35254;47.990;-1.608;2022-09-25T17:24:27;24.70;54.90
49379;DHT22;35254;47.990;-1.608;2022-09-25T17:26:55;24.70;54.90
49379;DHT22;35254;47.990;-1.608;2022-09-25T17:29:21;24.70;54.90
49379;DHT22;35254;47.990;-1.608;2022-09-25T17:31:46;24.70;54.90
49379;DHT22;35254;47.990;-1.608;2022-09-25T17:34:20;24.70;55.00
49379;DHT22;35254;47.990;-1.608;2022-09-25T17:36:50;24.70;55.00
49379;DHT22;35254;47.990;-1.608;2022-09-25T17:39:16;24.70;54.90
49379;DHT22;35254;47.990;-1.608;2022-09-25T17:41:42;24.70;54.30
49379;DHT22;35254;47.990;-1.608;2022-09-25T17:44:11;24.60;53.90
49379;DHT22;35254;47.990;-1.608;2022-09-25T17:46:37;24.50;53.80
49379;DHT22;35254;47.990;-1.608;2022-09-25T17:49:03;24.40;53.80
49379;DHT22;35254;47.990;-1.608;2022-09-25T17:51:29;24.40;53.80
49379;DHT22;35254;47.990;-1.608;2022-09-25T17:53:56;24.40;53.80
49379;DHT22;35254;47.990;-1.608;2022-09-25T17:56:23;24.30;53.60
49379;DHT22;35254;47.990;-1.608;2022-09-25T17:58:49;24.30;53.40
49379;DHT22;35254;47.990;-1.608;2022-09-25T18:01:23;24.30;53.70
49379;DHT22;35254;47.990;-1.608;2022-09-25T18:03:51;24.30;53.60
49379;DHT22;35254;47.990;-1.608;2022-09-25T18:06:17;24.30;53.70
49379;DHT22;35254;47.990;-1.608;2022-09-25T18:08:44;24.30;53.50
49379;DHT22;35254;47.990;-1.608;2022-09-25T18:11:11;24.40;53.50
49379;DHT22;35254;47.990;-1.608;2022-09-25T18:13:37;24.30;53.50
49379;DHT22;35254;47.990;-1.608;2022-09-25T18:16:04;24.40;53.70
49379;DHT22;35254;47.990;-1.608;2022-09-25T18:18:30;24.40;53.80
49379;DHT22;35254;47.990;-1.608;2022-09-25T18:21:18;24.40;53.80
49379;DHT22;35254;47.990;-1.608;2022-09-25T18:24:02;24.40;53.70
49379;DHT22;35254;47.990;-1.608;2022-09-25T18:26:29;24.40;53.50
49379;DHT22;35254;47.990;-1.608;2022-09-25T18:28:55;24.40;53.60
49379;DHT22;35254;47.990;-1.608;2022-09-25T18:31:21;24.40;53.50